Time;durP1;ratioP1;P1;durP2;ratioP2;P2;SDS_P1;SDS_P2;PMS_P1;PMS_P2;Temp;Humidity;BMP_temperature;BMP_pressure;BME280_temperature;BME280_humidity;BME280_pressure;Samples;Min_cycle;Max_cycle;Signal;HPM_P1;HPM_P2
2021/05/27 00:00:25;;;;;;;1.60;1.50;;;10.40;95.80;;;;;;4950090;28;20229;-91
2021/05/27 00:02:51;;;;;;;1.70;1.60;;;10.40;95.80;;;;;;4938748;28;20194;-92
2021/05/27 00:05:17;;;;;;;1.57;1.47;;;10.40;95.50;;;;;;4982424;28;20187;-91
2021/05/27 00:07:48;;;;;;;2.30;1.87;;;10.40;95.50;;;;;;4965845;28;20299;-91
2021/05/27 00:10:17;;;;;;;1.97;1.80;;;10.40;95.80;;;;;;4983332;28;20169;-91
2021/05/27 00:12:42;;;;;;;1.77;1.67;;;10.40;95.80;;;;;;4983170;28;20203;-92
2021/05/27 00:15:10;;;;;;;1.67;1.57;;;10.40;95.90;;;;;;4966327;28;20190;-91
2021/05/27 00:17:35;;;;;;;2.03;1.80;;;10.40;95.70;;;;;;4966413;28;20218;-92
2021/05/27 00:20:04;;;;;;;1.70;1.60;;;10.40;95.60;;;;;;4984751;28;20202;-92
2021/05/27 00:22:30;;;;;;;1.80;1.70;;;10.40;94.90;;;;;;4982703;28;20191;-92
2021/05/27 00:24:56;;;;;;;2.83;1.67;;;10.40;94.90;;;;;;4954157;29;20183;-92
2021/05/27 00:27:22;;;;;;;1.70;1.60;;;10.50;95.30;;;;;;4964592;28;20207;-92
2021/05/27 00:29:48;;;;;;;2.70;1.87;;;10.50;94.30;;;;;;4964313;29;20211;-92
2021/05/27 00:32:14;;;;;;;2.10;1.70;;;10.50;94.90;;;;;;4944525;28;20202;-91
2021/05/27 00:34:39;;;;;;;2.30;2.10;;;10.50;94.80;;;;;;4951106;28;20646;-92
2021/05/27 00:37:05;;;;;;;1.90;1.67;;;10.40;95.00;;;;;;4983504;28;20364;-92
2021/05/27 00:39:31;;;;;;;1.80;1.70;;;10.50;95.00;;;;;;4995856;28;20209;-91
2021/05/27 00:41:58;;;;;;;2.10;1.70;;;10.50;94.10;;;;;;4998469;28;20159;-92
2021/05/27 00:44:26;;;;;;;1.97;1.87;;;10.50;94.60;;;;;;4980376;28;20275;-92
2021/05/27 00:46:53;;;;;;;1.80;1.70;;;10.50;94.90;;;;;;4984748;28;20649;-92
2021/05/27 00:49:20;;;;;;;2.20;1.90;;;10.40;94.60;;;;;;4983314;28;20179;-92
2021/05/27 00:51:47;;;;;;;1.97;1.83;;;10.40;95.00;;;;;;4931759;29;20198;-91
2021/05/27 00:54:14;;;;;;;3.10;2.30;;;10.40;94.90;;;;;;4947820;29;20273;-92
2021/05/27 00:56:40;;;;;;;1.97;1.87;;;10.40;95.10;;;;;;4947412;29;20227;-92
2021/05/27 01:02:27;;;;;;;1.90;1.70;;;10.40;95.00;;;;;;4944200;29;20196;-92
2021/05/27 01:04:54;;;;;;;2.17;2.00;;;10.40;94.50;;;;;;4984225;28;20195;-92
2021/05/27 01:07:20;;;;;;;1.77;1.67;;;10.30;95.00;;;;;;4970879;28;20230;-92
2021/05/27 01:09:46;;;;;;;2.47;2.10;;;10.40;94.70;;;;;;4970072;29;20480;-92
2021/05/27 01:12:12;;;;;;;2.20;2.03;;;10.30;95.00;;;;;;4971907;28;20198;-92
2021/05/27 01:17:25;;;;;;;2.03;1.90;;;10.30;95.30;;;;;;4976193;29;20238;-92
2021/05/27 01:19:52;;;;;;;1.80;1.70;;;10.40;94.70;;;;;;4973060;28;20216;-92
2021/05/27 01:22:22;;;;;;;2.53;2.33;;;10.40;94.00;;;;;;4973159;28;20176;-92
2021/05/27 01:24:49;;;;;;;4.43;2.37;;;10.40;94.00;;;;;;4986153;28;20176;-91
2021/05/27 01:27:16;;;;;;;1.97;1.73;;;10.40;94.00;;;;;;4970508;28;20207;-92
2021/05/27 01:29:42;;;;;;;1.97;1.87;;;10.40;94.00;;;;;;4955054;29;20184;-92
2021/05/27 01:32:09;;;;;;;2.40;2.20;;;10.40;94.30;;;;;;4970330;29;20199;-91
2021/05/27 01:34:35;;;;;;;2.23;2.03;;;10.40;94.10;;;;;;4972650;29;20176;-92
2021/05/27 01:37:02;;;;;;;2.30;2.00;;;10.30;94.00;;;;;;4973722;28;20275;-92
2021/05/27 01:39:28;;;;;;;2.43;2.23;;;10.40;94.10;;;;;;4973156;29;20199;-92
2021/05/27 01:41:53;;;;;;;2.07;1.97;;;10.30;94.40;;;;;;4971704;29;20195;-92
2021/05/27 01:44:19;;;;;;;2.23;2.03;;;10.40;93.90;;;;;;4971751;29;20184;-92
2021/05/27 01:46:45;;;;;;;3.63;2.50;;;10.30;94.40;;;;;;4970442;28;20221;-92
2021/05/27 01:49:11;;;;;;;2.60;2.40;;;10.30;94.30;;;;;;4970414;29;20219;-92
2021/05/27 01:51:36;;;;;;;4.50;2.33;;;10.30;94.90;;;;;;4987437;28;20199;-91
2021/05/27 01:54:03;;;;;;;4.77;2.43;;;10.30;94.80;;;;;;4967166;28;20234;-92
2021/05/27 01:56:29;;;;;;;5.97;2.20;;;10.20;95.00;;;;;;4964732;29;20207;-91
2021/05/27 01:59:02;;;;;;;2.37;2.17;;;10.20;95.40;;;;;;4956330;28;20242;-93
2021/05/27 02:01:28;;;;;;;2.70;2.50;;;10.20;96.30;;;;;;4965654;28;20182;-92
2021/05/27 02:03:54;;;;;;;2.20;2.00;;;10.30;95.20;;;;;;4966094;28;20180;-92
2021/05/27 02:06:20;;;;;;;2.30;2.10;;;10.30;95.40;;;;;;4957654;29;20210;-91
2021/05/27 02:09:07;;;;;;;2.67;2.10;;;10.30;95.40;;;;;;4971088;29;20215;-92
2021/05/27 02:11:31;;;;;;;2.27;2.17;;;10.20;95.40;;;;;;4959193;28;20187;-92
2021/05/27 02:13:57;;;;;;;2.57;2.37;;;10.30;95.70;;;;;;4972328;28;20194;-92
2021/05/27 02:16:23;;;;;;;3.20;2.33;;;10.40;95.30;;;;;;4972708;28;20218;-92
2021/05/27 02:18:49;;;;;;;3.40;2.87;;;10.40;94.90;;;;;;4988565;28;20211;-91
2021/05/27 02:21:15;;;;;;;2.83;2.60;;;10.40;95.20;;;;;;4972597;28;20194;-91
2021/05/27 02:23:41;;;;;;;2.30;2.10;;;10.30;95.60;;;;;;4989854;28;20186;-92
2021/05/27 02:26:07;;;;;;;4.10;2.67;;;10.30;95.60;;;;;;4972590;28;20305;-91
2021/05/27 02:28:32;;;;;;;3.40;2.80;;;10.30;95.40;;;;;;4989936;28;20193;-92
2021/05/27 02:30:58;;;;;;;2.73;2.40;;;10.30;95.80;;;;;;4972145;28;20198;-91
2021/05/27 02:33:24;;;;;;;3.07;2.60;;;10.20;96.00;;;;;;4987986;28;20188;-92
2021/05/27 02:35:49;;;;;;;2.97;2.77;;;10.30;95.90;;;;;;4988931;28;20181;-92
2021/05/27 02:38:15;;;;;;;2.80;2.60;;;10.30;95.90;;;;;;4956319;28;20305;-91
2021/05/27 02:40:41;;;;;;;3.73;2.63;;;10.30;95.60;;;;;;4972220;28;20242;-92
2021/05/27 02:43:07;;;;;;;2.60;2.37;;;10.30;95.90;;;;;;4987834;28;20278;-91
2021/05/27 02:45:32;;;;;;;3.30;2.73;;;10.20;96.30;;;;;;4972533;28;20282;-92
2021/05/27 02:47:58;;;;;;;3.60;2.60;;;10.20;96.20;;;;;;4978246;28;20270;-92
2021/05/27 02:50:24;;;;;;;2.90;2.60;;;10.20;97.00;;;;;;4981316;28;20181;-91
2021/05/27 02:52:49;;;;;;;2.50;2.30;;;10.30;96.20;;;;;;4962492;28;20250;-91
2021/05/27 02:55:15;;;;;;;3.00;2.70;;;10.20;96.30;;;;;;4971888;28;20267;-92
2021/05/27 02:57:41;;;;;;;2.60;2.40;;;10.30;95.90;;;;;;4972104;28;20210;-92
2021/05/27 03:00:08;;;;;;;3.33;2.40;;;10.30;96.00;;;;;;4955068;28;20186;-92
2021/05/27 03:02:33;;;;;;;3.20;2.90;;;10.30;95.50;;;;;;4972109;28;20206;-92
2021/05/27 03:04:59;;;;;;;2.87;2.60;;;10.30;95.60;;;;;;4971959;28;20183;-92
2021/05/27 03:07:25;;;;;;;2.23;2.13;;;10.40;95.20;;;;;;4971728;28;20206;-92
2021/05/27 03:09:51;;;;;;;2.70;2.23;;;10.30;95.40;;;;;;4971979;28;20187;-92
2021/05/27 03:12:17;;;;;;;2.50;2.30;;;10.30;95.60;;;;;;4972858;28;20193;-92
2021/05/27 03:14:42;;;;;;;2.90;2.70;;;10.40;95.10;;;;;;4956249;28;20187;-92
2021/05/27 03:17:08;;;;;;;2.33;2.13;;;10.40;95.50;;;;;;4971045;28;20713;-91
2021/05/27 03:19:34;;;;;;;4.20;2.50;;;10.40;95.20;;;;;;4988948;28;20210;-92
2021/05/27 03:21:59;;;;;;;2.47;2.30;;;10.50;94.80;;;;;;4955526;28;20183;-91
2021/05/27 03:24:25;;;;;;;2.50;2.30;;;10.50;94.60;;;;;;4955364;28;20255;-92
2021/05/27 03:26:52;;;;;;;2.70;2.50;;;10.50;94.20;;;;;;4971613;28;20214;-92
2021/05/27 03:29:19;;;;;;;2.43;2.23;;;10.50;94.30;;;;;;4968587;29;20191;-91
2021/05/27 03:31:45;;;;;;;2.70;2.40;;;10.50;95.10;;;;;;4952020;29;20204;-92
2021/05/27 03:34:11;;;;;;;2.60;2.40;;;10.60;93.90;;;;;;4968119;29;20187;-91
2021/05/27 03:36:37;;;;;;;2.70;2.30;;;10.60;94.10;;;;;;4968968;29;20260;-92
2021/05/27 03:39:05;;;;;;;2.87;2.60;;;10.50;94.90;;;;;;4967293;29;20379;-92
2021/05/27 03:41:30;;;;;;;2.80;2.30;;;10.40;95.00;;;;;;4968799;29;20175;-92
2021/05/27 03:43:56;;;;;;;2.60;2.40;;;10.40;95.20;;;;;;4935602;29;20183;-92
2021/05/27 03:46:22;;;;;;;3.60;2.83;;;10.50;95.10;;;;;;4951859;29;20199;-92
2021/05/27 03:48:47;;;;;;;2.80;2.60;;;10.60;94.20;;;;;;4969635;28;20281;-92
2021/05/27 03:51:13;;;;;;;3.83;2.60;;;10.50;94.50;;;;;;4971683;28;20215;-92
2021/05/27 03:53:39;;;;;;;2.87;2.37;;;10.60;94.10;;;;;;4988916;28;20179;-92
2021/05/27 03:56:06;;;;;;;2.97;2.60;;;10.50;94.40;;;;;;5034314;23;20201;-87
2021/05/27 04:01:15;;;;;;;4.43;2.90;;;10.30;95.70;;;;;;5037550;28;20192;-86
2021/05/27 04:09:12;;;;;;;3.17;2.90;;;10.40;95.30;;;;;;5017208;28;20180;-86
2021/05/27 04:11:38;;;;;;;3.60;2.77;;;10.40;95.00;;;;;;4999835;28;20194;-86
2021/05/27 04:14:03;;;;;;;3.50;2.60;;;10.50;94.70;;;;;;5017355;28;20193;-89
2021/05/27 04:16:29;;;;;;;3.43;3.03;;;10.50;94.90;;;;;;5017366;28;20209;-85
2021/05/27 04:18:55;;;;;;;3.37;3.03;;;10.50;93.90;;;;;;5017801;28;20212;-86
2021/05/27 04:21:20;;;;;;;3.20;2.83;;;10.50;93.60;;;;;;5000309;28;20181;-86
2021/05/27 04:23:46;;;;;;;4.00;3.20;;;10.50;94.30;;;;;;4999971;28;20182;-86
2021/05/27 04:26:14;;;;;;;4.90;2.93;;;10.40;94.90;;;;;;5000332;28;20214;-85
2021/05/27 04:28:41;;;;;;;4.03;2.90;;;10.50;94.60;;;;;;5000960;28;20236;-88
2021/05/27 04:31:10;;;;;;;3.50;3.20;;;10.50;94.70;;;;;;5019157;28;20184;-86
2021/05/27 04:33:46;;;;;;;5.80;3.20;;;10.50;94.90;;;;;;4982412;28;20186;-89
2021/05/27 04:36:16;;;;;;;3.33;2.70;;;10.50;94.60;;;;;;5016216;28;20195;-88
2021/05/27 04:38:43;;;;;;;3.50;3.10;;;10.40;94.90;;;;;;5015483;28;20782;-86
2021/05/27 04:41:08;;;;;;;5.03;3.27;;;10.50;95.20;;;;;;5011643;28;20202;-86
2021/05/27 04:43:40;;;;;;;3.70;2.70;;;10.50;94.40;;;;;;5007416;28;20185;-87
2021/05/27 04:46:07;;;;;;;5.07;2.93;;;10.50;94.40;;;;;;5015436;28;20194;-87
2021/05/27 04:48:32;;;;;;;3.10;2.80;;;10.50;94.60;;;;;;4987008;28;20689;-87
2021/05/27 04:50:58;;;;;;;3.00;2.80;;;10.50;95.00;;;;;;5003051;28;20194;-86
2021/05/27 04:53:25;;;;;;;4.33;2.93;;;10.60;95.10;;;;;;5007115;28;20871;-87
2021/05/27 04:55:52;;;;;;;6.90;3.20;;;10.60;94.20;;;;;;5017213;28;20217;-87
2021/05/27 04:58:18;;;;;;;3.20;2.90;;;10.60;94.10;;;;;;5015833;28;20296;-87
2021/05/27 05:00:44;;;;;;;3.67;3.37;;;10.50;94.50;;;;;;5017022;28;20193;-87
2021/05/27 05:03:10;;;;;;;3.80;3.50;;;10.50;94.60;;;;;;5030727;28;20237;-91
2021/05/27 05:05:37;;;;;;;4.23;3.27;;;10.50;94.20;;;;;;5013709;28;20189;-87
2021/05/27 05:08:03;;;;;;;3.40;3.10;;;10.40;94.90;;;;;;5020323;28;20201;-91
2021/05/27 05:10:30;;;;;;;3.20;3.00;;;10.50;94.90;;;;;;5038880;28;20209;-87
2021/05/27 05:12:56;;;;;;;3.97;3.20;;;10.50;95.00;;;;;;5016724;28;20192;-87
2021/05/27 05:15:23;;;;;;;4.40;3.47;;;10.60;93.60;;;;;;5016460;28;20190;-89
2021/05/27 05:17:54;;;;;;;3.70;3.07;;;10.60;93.80;;;;;;5015974;28;20229;-87
2021/05/27 05:20:25;;;;;;;4.93;3.47;;;10.70;93.50;;;;;;5015380;28;20178;-87
2021/05/27 05:22:52;;;;;;;5.57;3.77;;;10.70;93.80;;;;;;5015915;28;20162;-87
2021/05/27 05:25:18;;;;;;;4.80;4.03;;;10.50;93.30;;;;;;4999641;28;20188;-88
2021/05/27 05:27:44;;;;;;;5.60;3.27;;;10.50;94.70;;;;;;4998333;28;20245;-87
2021/05/27 05:30:11;;;;;;;3.60;3.27;;;10.50;94.30;;;;;;5017946;28;20201;-87
2021/05/27 05:32:37;;;;;;;4.43;4.03;;;10.40;93.60;;;;;;5017348;28;20192;-87
2021/05/27 05:35:04;;;;;;;4.87;3.90;;;10.60;93.20;;;;;;5017532;28;20284;-88
2021/05/27 05:37:30;;;;;;;4.57;3.20;;;10.60;93.90;;;;;;4997474;28;20237;-88
2021/05/27 05:39:56;;;;;;;4.10;3.70;;;10.80;92.70;;;;;;5018910;28;20668;-87
2021/05/27 05:42:21;;;;;;;3.97;3.67;;;10.90;91.00;;;;;;4990768;28;20202;-87
2021/05/27 05:44:47;;;;;;;5.40;3.73;;;10.80;90.30;;;;;;4982088;28;20186;-87
2021/05/27 05:47:13;;;;;;;4.00;3.53;;;11.00;90.70;;;;;;5017581;28;20683;-87
2021/05/27 05:49:38;;;;;;;5.33;3.40;;;11.00;90.10;;;;;;5017117;28;20273;-87
2021/05/27 05:52:04;;;;;;;4.87;3.67;;;11.10;89.40;;;;;;5014073;28;20200;-88
2021/05/27 05:54:43;;;;;;;;;;;;;;;;;;;;;
2021/05/27 05:57:09;;;;;;;3.90;3.30;;;11.20;90.80;;;;;;5015736;28;20247;-87
2021/05/27 05:59:35;;;;;;;5.07;3.90;;;11.30;88.70;;;;;;4982244;28;20735;-87
2021/05/27 06:02:03;;;;;;;3.73;3.27;;;11.40;88.20;;;;;;4997735;28;20603;-87
2021/05/27 06:04:30;;;;;;;4.13;3.80;;;11.40;89.70;;;;;;5012888;28;20177;-87
2021/05/27 06:06:55;;;;;;;6.40;3.83;;;11.50;88.80;;;;;;5006165;28;20284;-88
2021/05/27 06:09:21;;;;;;;5.63;3.60;;;11.50;85.90;;;;;;5013323;28;20232;-86
2021/05/27 06:11:47;;;;;;;3.93;3.53;;;11.60;87.40;;;;;;5021521;28;20204;-86
2021/05/27 06:14:13;;;;;;;4.87;3.90;;;11.40;87.50;;;;;;4996898;28;20197;-87
2021/05/27 06:16:38;;;;;;;4.00;3.60;;;11.40;87.30;;;;;;4994868;28;20210;-88
2021/05/27 06:19:06;;;;;;;4.83;3.70;;;11.50;86.80;;;;;;4994740;28;20670;-88
2021/05/27 06:21:34;;;;;;;5.90;3.80;;;11.50;86.60;;;;;;4996223;28;20669;-89
2021/05/27 06:23:59;;;;;;;5.17;3.57;;;11.60;86.10;;;;;;4978497;28;20182;-88
2021/05/27 06:26:26;;;;;;;4.70;3.50;;;11.70;87.30;;;;;;5011404;28;20217;-88
2021/05/27 06:28:51;;;;;;;4.47;3.50;;;11.80;85.20;;;;;;5012703;28;20275;-88
2021/05/27 06:31:17;;;;;;;3.87;3.37;;;12.00;83.10;;;;;;5008963;28;20221;-87
2021/05/27 06:33:44;;;;;;;3.70;3.40;;;11.90;83.80;;;;;;5013145;28;20247;-88
2021/05/27 06:36:10;;;;;;;5.57;3.70;;;11.80;83.40;;;;;;5014883;28;20211;-88
2021/05/27 06:38:36;;;;;;;5.63;4.20;;;11.70;82.50;;;;;;5015030;28;20219;-88
2021/05/27 06:41:02;;;;;;;4.80;3.73;;;11.70;83.10;;;;;;5015384;28;20261;-88
2021/05/27 06:43:27;;;;;;;4.90;3.83;;;11.50;83.70;;;;;;5013487;28;20178;-88
2021/05/27 06:45:53;;;;;;;9.00;3.93;;;11.40;82.90;;;;;;4992923;28;20625;-88
2021/05/27 06:48:19;;;;;;;7.70;3.70;;;11.60;81.90;;;;;;5005214;28;20699;-88
2021/05/27 06:50:45;;;;;;;20.10;5.40;;;11.70;82.60;;;;;;5006406;28;20277;-88
2021/05/27 06:53:15;;;;;;;5.87;3.53;;;11.80;82.30;;;;;;4991167;28;20209;-89
2021/05/27 06:55:42;;;;;;;5.80;4.00;;;11.90;81.60;;;;;;5018265;28;20219;-87
2021/05/27 06:58:08;;;;;;;5.50;3.90;;;11.90;81.20;;;;;;4997008;28;20214;-88
2021/05/27 07:00:34;;;;;;;3.57;3.27;;;11.90;80.30;;;;;;5015279;28;20177;-89
2021/05/27 07:03:01;;;;;;;7.50;4.13;;;11.80;79.30;;;;;;5012538;28;20656;-90
2021/05/27 07:05:28;;;;;;;12.43;4.17;;;11.80;79.40;;;;;;4978712;28;20312;-91
2021/05/27 07:07:55;;;;;;;7.07;4.07;;;11.80;80.60;;;;;;4996855;28;20202;-92
2021/05/27 07:10:21;;;;;;;4.10;3.67;;;12.00;81.20;;;;;;5013474;28;20229;-91
2021/05/27 07:12:48;;;;;;;5.43;3.97;;;12.10;81.60;;;;;;5016019;28;20193;-90
2021/05/27 07:15:15;;;;;;;6.50;3.87;;;12.30;81.70;;;;;;5021265;28;20249;-91
2021/05/27 07:17:41;;;;;;;5.07;3.40;;;12.30;81.70;;;;;;5010850;28;20199;-90
2021/05/27 07:20:07;;;;;;;4.77;3.50;;;12.50;79.90;;;;;;5035209;28;20213;-91
2021/05/27 07:22:33;;;;;;;5.57;3.50;;;12.50;79.50;;;;;;4998421;28;20210;-89
2021/05/27 07:24:58;;;;;;;6.67;4.07;;;12.50;78.00;;;;;;5020817;28;20174;-90
2021/05/27 07:27:24;;;;;;;7.47;3.53;;;12.40;77.90;;;;;;5037336;28;20281;-89
2021/05/27 07:29:49;;;;;;;3.63;3.10;;;12.40;78.80;;;;;;5026570;28;20209;-86
2021/05/27 07:32:16;;;;;;;5.33;3.80;;;12.50;79.70;;;;;;5038190;28;20253;-87
2021/05/27 07:34:44;;;;;;;3.87;3.47;;;12.30;80.40;;;;;;5028521;28;20226;-90
2021/05/27 07:37:10;;;;;;;4.00;3.60;;;12.30;80.50;;;;;;5021908;28;20297;-89
2021/05/27 07:39:35;;;;;;;6.90;3.60;;;12.40;81.20;;;;;;5019435;28;20242;-88
2021/05/27 07:42:04;;;;;;;5.27;3.33;;;12.30;78.10;;;;;;4996632;28;20281;-88
2021/05/27 07:44:30;;;;;;;7.00;4.07;;;12.30;78.60;;;;;;5014746;28;20204;-89
2021/05/27 07:46:56;;;;;;;6.37;3.53;;;12.30;79.00;;;;;;5017131;28;20206;-86
2021/05/27 07:49:21;;;;;;;5.23;3.67;;;12.40;78.20;;;;;;5015689;28;20182;-88
2021/05/27 07:51:49;;;;;;;4.07;3.50;;;12.40;78.70;;;;;;5014612;28;20277;-89
2021/05/27 07:54:25;;;;;;;5.53;3.53;;;12.30;78.50;;;;;;5014433;28;20181;-92
2021/05/27 07:56:57;;;;;;;7.43;3.23;;;12.50;76.30;;;;;;5014582;28;20234;-90
2021/05/27 07:59:22;;;;;;;4.93;3.20;;;12.80;76.20;;;;;;5011982;28;20303;-90
2021/05/27 08:01:48;;;;;;;4.27;3.47;;;12.90;76.80;;;;;;4997033;28;20701;-91
2021/05/27 08:04:16;;;;;;;5.57;3.43;;;13.00;77.00;;;;;;5011340;28;20188;-89
2021/05/27 08:06:47;;;;;;;3.93;3.10;;;13.10;74.50;;;;;;5013555;28;20207;-90
2021/05/27 08:09:22;;;;;;;5.17;3.13;;;13.10;73.50;;;;;;5013423;28;20185;-88
2021/05/27 08:11:47;;;;;;;4.07;3.30;;;13.00;75.60;;;;;;5019333;28;20182;-89
2021/05/27 08:14:16;;;;;;;3.97;3.57;;;13.00;76.40;;;;;;4994911;28;20191;-90
2021/05/27 08:16:50;;;;;;;3.73;3.40;;;13.20;76.90;;;;;;5013974;28;20226;-90
2021/05/27 08:19:59;;;;;;;4.43;2.90;;;13.30;74.60;;;;;;5012794;28;20221;-91
2021/05/27 08:26:09;;;;;;;3.60;3.10;;;13.60;73.60;;;;;;4964999;28;20217;-92
2021/05/27 08:32:14;;;;;;;3.60;3.27;;;14.20;70.20;;;;;;4962461;28;20219;-91
2021/05/27 08:34:40;;;;;;;3.60;3.30;;;14.10;70.30;;;;;;4996297;28;20708;-91
2021/05/27 08:37:06;;;;;;;3.80;3.50;;;14.20;69.50;;;;;;5011153;28;20211;-92
2021/05/27 08:39:33;;;;;;;3.53;2.70;;;14.70;67.80;;;;;;5012068;28;20692;-92
2021/05/27 08:41:59;;;;;;;3.43;3.20;;;14.70;66.40;;;;;;5003478;28;20196;-89
2021/05/27 08:44:25;;;;;;;3.57;2.87;;;14.60;65.80;;;;;;4995387;28;20173;-92
2021/05/27 08:46:51;;;;;;;4.83;3.23;;;14.40;66.80;;;;;;4981392;28;20308;-94
2021/05/27 08:49:17;;;;;;;5.00;3.73;;;14.30;68.90;;;;;;4979639;28;20220;-93
2021/05/27 08:51:43;;;;;;;3.03;2.83;;;14.10;69.60;;;;;;5014521;28;20190;-93
2021/05/27 08:54:09;;;;;;;4.97;3.00;;;13.90;71.10;;;;;;5014993;28;20199;-94
2021/05/27 08:56:35;;;;;;;4.23;2.67;;;13.90;68.60;;;;;;5012358;28;20225;-90
2021/05/27 08:59:01;;;;;;;7.10;3.10;;;13.90;69.40;;;;;;4995911;28;20220;-90
2021/05/27 09:01:27;;;;;;;3.53;2.63;;;14.00;66.90;;;;;;4995181;28;20189;-90
2021/05/27 09:03:56;;;;;;;5.43;2.90;;;13.90;68.20;;;;;;5013200;28;20184;-89
2021/05/27 09:06:23;;;;;;;5.70;2.90;;;13.80;70.20;;;;;;5011681;28;20220;-89
2021/05/27 09:08:49;;;;;;;9.40;3.67;;;13.80;70.20;;;;;;5013064;28;20188;-88
2021/05/27 09:11:17;;;;;;;3.93;2.70;;;13.80;70.80;;;;;;5007192;28;20201;-89
2021/05/27 09:14:01;;;;;;;5.07;3.20;;;13.60;70.10;;;;;;4994264;28;20212;-91
2021/05/27 09:16:27;;;;;;;11.20;3.03;;;13.70;67.80;;;;;;4991938;28;20594;-91
2021/05/27 09:18:54;;;;;;;5.17;2.80;;;13.60;70.00;;;;;;5004607;28;20747;-92
2021/05/27 09:21:40;;;;;;;12.30;3.73;;;13.70;70.00;;;;;;5011460;28;20189;-91
2021/05/27 09:24:07;;;;;;;3.87;2.77;;;13.70;70.50;;;;;;5012165;28;20173;-90
2021/05/27 09:26:47;;;;;;;9.47;3.00;;;13.90;70.10;;;;;;4979836;28;20240;-91
2021/05/27 09:29:13;;;;;;;4.93;2.63;;;13.90;68.80;;;;;;5021032;28;20234;-90
2021/05/27 09:31:59;;;;;;;4.93;2.90;;;14.00;68.30;;;;;;5021612;28;20666;-92
2021/05/27 09:34:48;;;;;;;4.67;2.83;;;14.00;66.80;;;;;;5017763;28;20174;-87
2021/05/27 09:37:21;;;;;;;4.10;2.60;;;13.90;67.50;;;;;;5032694;28;20202;-89
2021/05/27 09:39:47;;;;;;;7.33;6.60;;;14.00;68.50;;;;;;5037833;28;20208;-89
2021/05/27 09:42:13;;;;;;;3.37;2.80;;;14.20;66.40;;;;;;5038721;28;20201;-88
2021/05/27 09:44:39;;;;;;;3.67;2.70;;;14.20;66.60;;;;;;5032365;28;20177;-87
2021/05/27 09:47:05;;;;;;;29.33;7.37;;;14.10;67.30;;;;;;5039021;28;20289;-88
2021/05/27 09:49:33;;;;;;;4.67;2.50;;;14.00;67.70;;;;;;5040960;28;20172;-90
2021/05/27 09:52:16;;;;;;;4.90;2.93;;;13.80;68.50;;;;;;5023930;28;20192;-86
2021/05/27 09:54:58;;;;;;;5.00;2.90;;;14.00;67.30;;;;;;5038103;28;20184;-88
2021/05/27 09:57:26;;;;;;;4.27;2.90;;;14.10;67.20;;;;;;5022134;28;20232;-89
2021/05/27 09:59:52;;;;;;;2.83;2.63;;;14.10;67.80;;;;;;5019335;28;20228;-87
2021/05/27 10:02:19;;;;;;;5.33;2.83;;;14.10;67.80;;;;;;5022157;28;20204;-89
2021/05/27 10:04:57;;;;;;;3.53;2.50;;;14.00;65.90;;;;;;5038395;28;20165;-88
2021/05/27 10:07:40;;;;;;;4.73;2.47;;;14.10;66.50;;;;;;5039542;28;20196;-89
2021/05/27 10:10:10;;;;;;;4.13;2.70;;;14.30;65.70;;;;;;5038620;28;20246;-88
2021/05/27 10:13:02;;;;;;;2.80;2.50;;;14.40;65.50;;;;;;5026678;28;20181;-88
2021/05/27 10:15:28;;;;;;;3.10;2.40;;;14.30;66.30;;;;;;5013218;28;20223;-88
2021/05/27 10:17:57;;;;;;;7.30;2.70;;;14.30;66.30;;;;;;5003993;28;20722;-89
2021/05/27 10:20:25;;;;;;;4.07;2.77;;;14.50;67.10;;;;;;5015191;28;20228;-88
2021/05/27 10:22:53;;;;;;;4.67;2.70;;;14.50;67.10;;;;;;4997172;28;20189;-88
2021/05/27 10:25:20;;;;;;;3.40;2.77;;;14.50;66.40;;;;;;5014966;28;20227;-91
2021/05/27 10:30:18;;;;;;;2.40;2.20;;;14.70;64.30;;;;;;4982645;28;20229;-85
2021/05/27 10:32:49;;;;;;;3.17;2.80;;;14.80;64.80;;;;;;4985500;28;20288;-88
2021/05/27 10:35:16;;;;;;;2.77;2.53;;;14.90;63.80;;;;;;4971355;28;20191;-87
2021/05/27 10:37:43;;;;;;;4.20;2.70;;;15.10;64.60;;;;;;4987071;28;20179;-88
2021/05/27 10:40:11;;;;;;;3.50;2.60;;;15.20;63.80;;;;;;5006498;28;20198;-88
2021/05/27 10:42:55;;;;;;;5.20;2.53;;;15.20;61.90;;;;;;4992391;28;20179;-88
2021/05/27 10:45:36;;;;;;;3.97;2.67;;;15.30;63.40;;;;;;4993906;28;20184;-88
2021/05/27 10:48:14;;;;;;;2.97;2.30;;;15.40;62.20;;;;;;5005075;28;20183;-88
2021/05/27 10:51:35;;;;;;;3.90;2.47;;;15.10;63.40;;;;;;5005131;28;20182;-88
2021/05/27 10:53:44;;;;;;;3.07;2.77;;;15.20;61.10;;;;;;4989503;28;20186;-88
2021/05/27 10:56:15;;;;;;;3.27;2.53;;;15.40;62.80;;;;;;5020364;28;20179;-88
2021/05/27 10:58:47;;;;;;;3.17;2.53;;;15.70;62.10;;;;;;5004738;28;20214;-88
2021/05/27 11:01:30;;;;;;;2.60;2.40;;;16.10;59.90;;;;;;5003904;28;20193;-88
2021/05/27 11:04:21;;;;;;;3.93;2.43;;;16.00;59.50;;;;;;5006355;28;20181;-88
2021/05/27 11:06:49;;;;;;;5.93;3.27;;;16.10;60.10;;;;;;4992581;28;20200;-88
2021/05/27 11:09:23;;;;;;;2.50;2.30;;;16.00;61.20;;;;;;5005023;28;20210;-88
2021/05/27 11:11:58;;;;;;;3.33;2.60;;;16.00;59.70;;;;;;5001972;28;20185;-88
2021/05/27 11:14:27;;;;;;;3.47;2.33;;;16.10;60.70;;;;;;5003888;28;20171;-88
2021/05/27 11:17:34;;;;;;;5.40;3.10;;;15.90;60.60;;;;;;5001453;28;20274;-87
2021/05/27 11:25:09;;;;;;;5.10;2.80;;;16.00;62.60;;;;;;4999371;28;20179;-88
2021/05/27 11:27:49;;;;;;;2.80;2.53;;;16.50;58.60;;;;;;5006397;28;20182;-87
2021/05/27 11:30:22;;;;;;;4.87;2.90;;;17.00;57.90;;;;;;5015411;28;20689;-88
2021/05/27 11:33:03;;;;;;;4.23;2.83;;;17.30;58.70;;;;;;5001638;28;20214;-85
2021/05/27 11:35:49;;;;;;;5.30;2.50;;;17.80;56.20;;;;;;5001015;28;20186;-86
2021/05/27 11:38:21;;;;;;;4.33;2.87;;;18.10;52.80;;;;;;5015485;28;20202;-85
2021/05/27 11:40:52;;;;;;;3.57;2.30;;;17.30;54.10;;;;;;5008317;28;20189;-87
2021/05/27 11:43:25;;;;;;;8.43;2.60;;;17.20;55.30;;;;;;5002544;28;20183;-86
2021/05/27 11:45:52;;;;;;;2.83;2.50;;;17.00;56.90;;;;;;5003559;28;20186;-86
2021/05/27 11:51:16;;;;;;;26.40;4.80;;;16.60;57.00;;;;;;5000223;28;20283;-84
2021/05/27 11:53:50;;;;;;;14.20;3.70;;;17.50;55.90;;;;;;4998798;28;20178;-85
2021/05/27 11:56:44;;;;;;;32.23;6.63;;;18.20;56.80;;;;;;5002068;28;20197;-86
2021/05/27 11:59:23;;;;;;;5.50;2.70;;;18.20;55.50;;;;;;4997571;28;20340;-87
2021/05/27 12:01:58;;;;;;;4.50;2.83;;;17.80;53.60;;;;;;5001711;28;20186;-84
2021/05/27 12:04:25;;;;;;;3.33;2.40;;;17.10;56.50;;;;;;4999617;28;20179;-84
2021/05/27 12:07:13;;;;;;;3.40;3.07;;;16.80;56.30;;;;;;5007551;28;20308;-86
2021/05/27 12:09:47;;;;;;;5.47;2.40;;;17.00;55.80;;;;;;4997728;28;20204;-86
2021/05/27 12:12:25;;;;;;;4.77;3.17;;;17.00;57.70;;;;;;4999143;28;20186;-86
2021/05/27 12:14:56;;;;;;;6.97;2.73;;;17.00;57.10;;;;;;5008013;28;20178;-86
2021/05/27 12:17:36;;;;;;;4.73;3.00;;;17.00;56.40;;;;;;5012274;28;20179;-86
2021/05/27 12:20:08;;;;;;;4.07;2.90;;;16.80;57.00;;;;;;4997567;28;20225;-85
2021/05/27 12:23:07;;;;;;;3.17;2.87;;;16.80;57.70;;;;;;4983282;28;20234;-86
2021/05/27 12:25:34;;;;;;;3.63;3.00;;;17.10;56.30;;;;;;4990756;28;20184;-83
2021/05/27 12:28:15;;;;;;;3.47;2.67;;;17.10;55.00;;;;;;5000135;28;20185;-85
2021/05/27 12:30:52;;;;;;;5.60;2.83;;;17.00;57.00;;;;;;5000638;28;20202;-87
2021/05/27 12:33:23;;;;;;;8.20;3.23;;;17.00;56.80;;;;;;4995683;28;20178;-87
2021/05/27 12:35:49;;;;;;;7.50;2.97;;;16.90;56.20;;;;;;5001333;28;20180;-87
2021/05/27 12:38:21;;;;;;;4.20;2.90;;;16.90;56.40;;;;;;4997976;28;20198;-84
2021/05/27 12:40:50;;;;;;;3.53;2.87;;;16.80;56.00;;;;;;4997680;28;20717;-86
2021/05/27 12:43:37;;;;;;;4.50;3.00;;;16.70;58.10;;;;;;4997072;28;20184;-82
2021/05/27 12:46:06;;;;;;;7.10;2.40;;;16.50;57.50;;;;;;5004539;28;20331;-84
2021/05/27 12:48:33;;;;;;;2.33;2.23;;;16.40;57.40;;;;;;5000657;28;20276;-86
2021/05/27 12:51:05;;;;;;;5.37;4.90;;;16.20;58.50;;;;;;5000163;28;20198;-88
2021/05/27 12:53:33;;;;;;;2.70;2.47;;;16.20;58.70;;;;;;5003376;28;20191;-86
2021/05/27 12:56:11;;;;;;;5.73;2.77;;;16.30;60.10;;;;;;5002246;28;20198;-86
2021/05/27 12:58:39;;;;;;;4.80;2.80;;;16.50;59.50;;;;;;5005230;28;20279;-84
2021/05/27 13:01:06;;;;;;;5.77;2.50;;;16.60;56.20;;;;;;5004951;28;20553;-84
2021/05/27 13:03:43;;;;;;;3.40;2.20;;;16.60;57.10;;;;;;5007334;28;20184;-79
2021/05/27 13:06:11;;;;;;;2.93;2.47;;;16.60;57.50;;;;;;5008041;28;20171;-82
2021/05/27 13:08:39;;;;;;;2.80;2.43;;;16.50;58.00;;;;;;5008604;28;20204;-82
2021/05/27 13:11:40;;;;;;;14.50;3.10;;;16.40;57.20;;;;;;5008038;28;20255;-81
2021/05/27 13:14:23;;;;;;;3.33;2.37;;;16.20;57.10;;;;;;4970684;29;20226;-82
2021/05/27 13:16:52;;;;;;;3.80;2.50;;;16.10;57.90;;;;;;5011025;28;20203;-80
2021/05/27 13:19:28;;;;;;;2.63;2.40;;;16.10;59.20;;;;;;5015083;28;20212;-81
2021/05/27 13:21:59;;;;;;;6.47;2.53;;;16.30;58.20;;;;;;5007013;28;20249;-80
2021/05/27 13:24:32;;;;;;;3.60;2.77;;;16.50;58.10;;;;;;5005367;28;20254;-88
2021/05/27 13:27:12;;;;;;;3.57;2.30;;;16.60;58.30;;;;;;5005075;28;20176;-85
2021/05/27 13:30:06;;;;;;;2.73;2.03;;;16.70;58.50;;;;;;4980456;28;1123327;-84